Time;durP1;ratioP1;P1;durP2;ratioP2;P2;SDS_P1;SDS_P2;PMS_P1;PMS_P2;Temp;Humidity;BMP_temperature;BMP_pressure;BME280_temperature;BME280_humidity;BME280_pressure;Samples;Min_cycle;Max_cycle;Signal;HPM_P1;HPM_P2
2021/12/23 08:15:54;;;;;;;;;49.75;43.00;;;;;3.84;65.65;101084.25;5041250;28;45550;-89
2021/12/23 08:18:33;;;;;;;;;49.50;42.25;;;;;3.98;65.84;101109.84;5051022;28;45395;-91
2021/12/23 08:23:58;;;;;;;;;59.75;49.75;;;;;3.98;65.13;101104.66;5061804;28;45904;-88
2021/12/23 08:27:14;;;;;;;;;46.75;42.00;;;;;4.14;65.90;101116.38;5063701;28;45411;-87
2021/12/23 08:29:40;;;;;;;;;48.75;42.25;;;;;4.11;65.34;101097.16;5059706;28;45265;-91
2021/12/23 08:32:06;;;;;;;;;42.25;35.00;;;;;4.09;65.42;101088.41;5079545;28;44922;-93
2021/12/23 08:34:34;;;;;;;;;53.75;45.25;;;;;4.13;65.72;101088.56;5073051;28;47274;-91
2021/12/23 08:37:00;;;;;;;;;49.75;41.00;;;;;4.11;65.70;101069.38;5072281;28;45272;-88
2021/12/23 08:39:26;;;;;;;;;51.75;42.25;;;;;4.26;65.60;101099.31;5071886;28;45244;-89
2021/12/23 08:41:56;;;;;;;;;46.00;40.00;;;;;4.36;65.79;101107.44;5051310;28;44802;-89
2021/12/23 08:44:21;;;;;;;;;53.25;41.00;;;;;4.38;65.62;101099.63;5069595;28;46579;-89
2021/12/23 08:46:47;;;;;;;;;58.25;45.25;;;;;4.27;65.46;101059.38;5068509;28;44804;-90
2021/12/23 08:49:12;;;;;;;;;57.50;44.00;;;;;4.52;65.38;101107.88;5070543;28;44913;-91
2021/12/23 08:52:15;;;;;;;;;51.25;41.00;;;;;4.57;65.66;101096.72;5070405;28;45398;-90
2021/12/23 08:59:20;;;;;;;;;;;;;;;;;;;;;
2021/12/23 09:45:17;;;;;;;;;;;;;;;;;;;;;
2021/12/23 09:55:23;;;;;;;;;48.25;37.75;;;;;5.62;66.39;101081.81;4896862;29;45476;-90
2021/12/23 13:59:53;;;;;;;;;31.50;30.50;;;;;15.41;52.24;100821.25;4964294;28;45559;-92
2021/12/23 15:57:15;;;;;;;;;27.75;20.75;;;;;10.91;60.50;100884.13;4990065;28;45485;-85
2021/12/23 16:04:15;;;;;;;;;27.50;24.25;;;;;10.79;61.06;100877.13;4952852;28;45561;-86
2021/12/23 17:34:15;;;;;;;;;24.75;23.00;;;;;10.50;64.32;100855.25;4997826;28;45837;-83
2021/12/23 17:37:16;;;;;;;;;32.25;28.25;;;;;10.51;64.22;100843.84;5015495;28;45060;-88
2021/12/23 20:48:10;;;;;;;;;332.25;286.50;;;;;11.20;66.90;100827.78;5103241;27;45305;-83
2021/12/23 20:58:34;;;;;;;;;25.50;22.50;;;;;11.15;66.82;100832.25;4985831;28;45757;-88
2021/12/23 21:01:05;;;;;;;;;27.50;23.00;;;;;11.11;67.14;100835.75;4989398;27;45519;-87
2021/12/23 21:03:43;;;;;;;;;21.00;17.25;;;;;11.01;67.16;100825.28;5093703;27;45901;-87
2021/12/23 21:06:09;;;;;;;;;18.50;18.25;;;;;11.02;67.31;100820.88;5086923;27;45740;-86
2021/12/23 21:08:38;;;;;;;;;20.00;19.25;;;;;10.97;67.18;100818.25;5103396;27;45353;-88
2021/12/23 21:11:04;;;;;;;;;23.75;21.75;;;;;10.92;67.19;100809.47;5097547;27;47242;-87
2021/12/23 21:13:32;;;;;;;;;26.00;26.00;;;;;10.91;67.18;100813.00;5126210;27;45147;-86
2021/12/23 21:16:17;;;;;;;;;;;;;;;;;;;;;
2021/12/23 21:18:43;;;;;;;;;29.50;24.25;;;;;10.99;67.34;100828.78;5116219;27;73990;-87
2021/12/23 21:21:10;;;;;;;;;26.25;25.25;;;;;10.98;67.33;100832.28;5094896;27;46873;-87
2021/12/23 21:23:39;;;;;;;;;22.50;21.00;;;;;10.96;67.41;100832.31;5107608;27;44838;-86
2021/12/23 21:26:12;;;;;;;;;28.00;25.75;;;;;10.90;67.55;100827.03;5121805;27;45529;-87
2021/12/23 21:28:38;;;;;;;;;27.50;25.75;;;;;10.88;67.62;100822.66;5104120;27;45356;-87
2021/12/23 21:31:03;;;;;;;;;28.00;26.00;;;;;10.97;67.40;100847.22;5089137;27;48121;-87
2021/12/23 21:33:39;;;;;;;;;;;;;;;;;;;;;
2021/12/23 21:36:06;;;;;;;;;27.25;26.25;;;;;10.92;67.62;100841.09;5118396;27;70613;-87
2021/12/23 21:38:32;;;;;;;;;30.75;27.25;;;;;10.91;67.48;100835.84;5112670;27;45432;-87
2021/12/23 21:41:09;;;;;;;;;24.75;22.75;;;;;10.97;67.62;100841.94;5105739;27;45518;-87
2021/12/23 21:43:38;;;;;;;;;26.50;24.25;;;;;10.88;67.46;100830.56;5099140;27;45427;-87
2021/12/23 21:46:04;;;;;;;;;25.25;23.50;;;;;10.85;67.63;100820.91;5102608;27;45755;-87
2021/12/23 21:51:32;;;;;;;;;29.75;27.50;;;;;10.94;67.69;100854.28;5090250;27;45921;-89
2021/12/23 21:54:14;;;;;;;;;26.25;25.75;;;;;10.94;67.74;100855.13;5123648;27;45642;-89
2021/12/23 21:56:42;;;;;;;;;29.25;25.50;;;;;10.97;67.83;100859.53;5093519;27;45549;-87
2021/12/23 21:59:09;;;;;;;;;31.00;27.00;;;;;10.88;67.56;100843.72;5097377;27;45445;-88
2021/12/23 22:01:53;;;;;;;;;26.50;23.75;;;;;10.85;67.88;100835.84;5093610;27;47087;-84
2021/12/23 22:05:11;;;;;;;;;27.00;24.00;;;;;10.95;67.79;100842.84;5092951;27;45503;-88
2021/12/23 22:07:46;;;;;;;;;27.25;24.75;;;;;10.90;67.84;100828.81;5073650;27;45447;-86
2021/12/23 22:11:08;;;;;;;;;;;;;;;;;;;;;
2021/12/23 22:14:20;;;;;;;;;27.00;23.50;;;;;10.88;67.81;100806.84;5125507;27;74252;-88
2021/12/23 22:20:52;;;;;;;;;;;;;;;;;;;;;
2021/12/23 22:23:53;;;;;;;;;31.50;27.25;;;;;10.97;67.97;100834.06;5023682;28;72706;-86
2021/12/23 22:26:43;;;;;;;;;32.75;27.25;;;;;10.88;67.64;100805.13;5009006;28;46238;-87
2021/12/23 22:29:19;;;;;;;;;;;;;;;;;;;;;
2021/12/23 22:31:55;;;;;;;;;41.25;36.75;;;;;10.89;67.77;100816.53;5108686;27;69000;-88
2021/12/23 22:34:23;;;;;;;;;43.25;39.25;;;;;10.86;68.05;100816.56;5098371;27;45627;-88
2021/12/23 22:36:56;;;;;;;;;32.00;29.75;;;;;10.89;68.02;100820.03;5084811;27;47129;-88
2021/12/23 22:39:26;;;;;;;;;32.75;28.50;;;;;10.85;67.92;100817.41;5091650;27;45589;-86
2021/12/23 22:42:07;;;;;;;;;30.00;29.50;;;;;10.79;68.37;100807.78;5102362;27;45599;-87
2021/12/23 22:44:36;;;;;;;;;30.75;28.75;;;;;10.74;68.30;100807.78;5093577;27;45591;-87
2021/12/23 22:47:09;;;;;;;;;57.00;43.50;;;;;10.78;68.22;100817.44;5092398;27;47129;-88
2021/12/23 22:50:16;;;;;;;;;41.75;36.50;;;;;10.74;68.70;100812.19;5114741;27;45409;-87
